Time;durP1;ratioP1;P1;durP2;ratioP2;P2;SDS_P1;SDS_P2;PMS_P1;PMS_P2;Temp;Humidity;BMP_temperature;BMP_pressure;BME280_temperature;BME280_humidity;BME280_pressure;Samples;Min_cycle;Max_cycle;Signal;HPM_P1;HPM_P2
2020/12/03 00:01:29;;;;;;;44.40;27.15;;;;;;;10.99;66.10;100707.69;5063338;28;20032;-75
2020/12/03 00:03:57;;;;;;;48.20;29.40;;;;;;;10.88;66.13;100704.50;5061887;28;20052;-76
2020/12/03 00:06:37;;;;;;;39.72;24.98;;;;;;;10.88;66.38;100704.50;5063081;28;20040;-75
2020/12/03 00:09:10;;;;;;;48.85;27.48;;;;;;;10.80;66.62;100698.38;5069245;28;20028;-75
2020/12/03 00:11:43;;;;;;;41.08;24.88;;;;;;;10.96;66.00;100695.31;5065600;28;20028;-76
2020/12/03 00:14:10;;;;;;;48.30;29.20;;;;;;;11.04;65.64;100675.25;5066374;28;20055;-74
2020/12/03 00:16:36;;;;;;;50.65;31.35;;;;;;;11.05;65.82;100672.34;5065824;28;20048;-75
2020/12/03 00:19:03;;;;;;;40.65;22.33;;;;;;;10.98;65.82;100671.47;5067337;28;20040;-75
2020/12/03 00:21:51;;;;;;;38.58;22.60;;;;;;;11.09;65.29;100654.56;5067059;28;20494;-75
2020/12/03 00:24:23;;;;;;;43.17;22.30;;;;;;;10.99;65.72;100659.53;5062161;28;20698;-75
2020/12/03 00:26:49;;;;;;;45.17;26.08;;;;;;;10.95;65.57;100643.81;5061813;28;20024;-74
2020/12/03 00:29:14;;;;;;;33.20;20.50;;;;;;;10.89;65.94;100640.03;5068713;28;20433;-75
2020/12/03 00:31:42;;;;;;;35.80;21.27;;;;;;;10.90;65.87;100634.38;5069258;28;20055;-75
2020/12/03 00:34:08;;;;;;;42.80;21.58;;;;;;;10.90;65.82;100628.09;5066720;28;20059;-75
2020/12/03 00:36:35;;;;;;;33.28;20.60;;;;;;;11.04;65.42;100637.16;5067720;28;20068;-75
2020/12/03 00:39:03;;;;;;;40.67;22.70;;;;;;;10.89;65.81;100629.13;5066079;28;20059;-76
2020/12/03 00:41:28;;;;;;;33.92;20.85;;;;;;;10.90;65.83;100622.66;5066704;28;20067;-75
2020/12/03 00:43:54;;;;;;;39.28;23.40;;;;;;;10.89;65.70;100610.09;5079542;28;20061;-75
2020/12/03 00:46:19;;;;;;;36.80;22.60;;;;;;;10.90;65.82;100609.06;5069834;28;20044;-75
2020/12/03 00:48:45;;;;;;;34.53;24.50;;;;;;;10.88;65.86;100601.09;5066846;28;20028;-76
2020/12/03 00:51:12;;;;;;;32.40;20.05;;;;;;;10.81;65.89;100594.78;5067905;28;20105;-76
2020/12/03 00:53:39;;;;;;;31.50;18.08;;;;;;;10.86;65.73;100592.31;5068534;28;20041;-75
2020/12/03 00:56:04;;;;;;;35.17;20.90;;;;;;;10.85;65.54;100590.63;5083934;28;20490;-76
2020/12/03 00:58:30;;;;;;;41.13;21.92;;;;;;;10.96;65.46;100586.47;5063816;28;20032;-76
2020/12/03 01:00:55;;;;;;;32.13;22.08;;;;;;;10.91;65.60;100578.94;5067367;28;20035;-75
2020/12/03 01:03:21;;;;;;;31.52;19.92;;;;;;;10.88;65.54;100573.91;5065030;28;20634;-75
2020/12/03 01:05:46;;;;;;;36.60;20.33;;;;;;;10.71;65.75;100573.44;5063267;28;20116;-75
2020/12/03 01:08:11;;;;;;;32.40;19.67;;;;;;;10.77;65.77;100573.66;5066326;28;20032;-76
2020/12/03 01:10:37;;;;;;;33.88;21.23;;;;;;;10.75;65.82;100579.28;5065772;28;20612;-75
2020/12/03 01:13:04;;;;;;;33.92;19.75;;;;;;;10.78;65.99;100578.88;5066040;28;20497;-75
2020/12/03 01:15:29;;;;;;;33.22;19.35;;;;;;;10.80;65.84;100576.81;5068224;28;20020;-77
2020/12/03 01:17:55;;;;;;;32.08;20.50;;;;;;;10.83;65.71;100575.56;5063554;28;20448;-75
2020/12/03 01:20:25;;;;;;;28.92;18.05;;;;;;;10.91;65.57;100569.94;5067978;28;20115;-75
2020/12/03 01:22:50;;;;;;;29.38;18.25;;;;;;;10.52;66.68;100563.34;5067502;28;20356;-77
2020/12/03 01:25:17;;;;;;;30.67;18.90;;;;;;;10.63;66.81;100562.75;5067444;28;20035;-75
2020/12/03 01:27:43;;;;;;;26.95;17.02;;;;;;;10.58;66.88;100557.06;5063896;28;20033;-75
2020/12/03 01:30:09;;;;;;;30.83;16.80;;;;;;;10.74;66.75;100561.31;5066616;28;20028;-75
2020/12/03 01:32:36;;;;;;;29.15;18.30;;;;;;;10.83;66.40;100568.25;5065158;28;20585;-75
2020/12/03 01:35:03;;;;;;;25.50;16.70;;;;;;;10.90;66.41;100554.66;5063630;28;20117;-76
2020/12/03 01:37:29;;;;;;;26.25;16.85;;;;;;;10.72;66.89;100547.06;5066916;28;20109;-76
2020/12/03 01:39:54;;;;;;;23.35;18.10;;;;;;;10.92;66.47;100556.13;5060986;28;20502;-75
2020/12/03 01:42:20;;;;;;;26.30;14.80;;;;;;;10.98;66.32;100553.63;5065877;28;20043;-76
2020/12/03 01:44:49;;;;;;;23.25;17.50;;;;;;;10.90;66.41;100549.22;5065349;28;20039;-76
2020/12/03 01:47:29;;;;;;;22.42;15.98;;;;;;;10.96;66.43;100553.00;5067642;28;20047;-76
2020/12/03 01:49:55;;;;;;;25.95;15.18;;;;;;;10.96;66.48;100551.09;5065385;28;20368;-76
2020/12/03 01:52:20;;;;;;;27.08;17.98;;;;;;;10.90;66.73;100544.59;5079465;28;20032;-76
2020/12/03 01:54:46;;;;;;;25.05;19.20;;;;;;;10.96;66.76;100542.94;5066122;28;20032;-76
2020/12/03 01:57:32;;;;;;;27.98;15.77;;;;;;;11.04;66.58;100545.47;5065424;28;20033;-76
2020/12/03 02:00:10;;;;;;;21.48;14.57;;;;;;;10.91;66.71;100542.75;5064145;28;20075;-77
2020/12/03 02:02:36;;;;;;;25.67;15.63;;;;;;;10.85;67.15;100533.50;5066437;28;20024;-79
2020/12/03 02:05:07;;;;;;;29.15;16.20;;;;;;;10.92;66.76;100530.78;5066979;28;20553;-77
2020/12/03 02:07:32;;;;;;;;;;;;;;;11.01;66.74;100537.72;5069116;28;20036;-76
2020/12/03 02:09:58;;;;;;;26.55;15.98;;;;;;;11.04;66.57;100528.31;5066614;28;20286;-78
2020/12/03 02:12:23;;;;;;;26.13;16.10;;;;;;;10.92;67.24;100534.38;5067276;28;20044;-79
2020/12/03 02:14:48;;;;;;;28.13;16.27;;;;;;;11.05;66.59;100527.28;5064348;28;20040;-78
2020/12/03 02:17:14;;;;;;;24.67;16.83;;;;;;;11.07;66.76;100511.56;5064745;28;20125;-79
2020/12/03 02:19:40;;;;;;;21.67;15.63;;;;;;;11.06;66.72;100505.28;5061404;28;20031;-79
2020/12/03 02:22:08;;;;;;;21.45;16.83;;;;;;;10.98;66.76;100510.91;5065158;28;20037;-79
2020/12/03 02:24:37;;;;;;;24.45;16.08;;;;;;;11.02;67.13;100506.75;5064125;28;20112;-79
2020/12/03 02:27:04;;;;;;;16.67;13.52;;;;;;;11.06;67.28;100497.13;5063994;28;20024;-79
2020/12/03 02:29:29;;;;;;;16.92;13.73;;;;;;;11.03;67.28;100494.81;5063742;28;20021;-79
2020/12/03 02:31:55;;;;;;;16.90;15.15;;;;;;;11.18;66.79;100497.31;5064742;28;20086;-78
2020/12/03 02:34:21;;;;;;;20.25;15.30;;;;;;;11.14;66.77;100492.50;5063738;28;20044;-78
2020/12/03 02:36:57;;;;;;;20.13;17.88;;;;;;;11.21;66.71;100493.34;5061436;28;20029;-80
2020/12/03 02:39:24;;;;;;;16.35;13.43;;;;;;;11.24;66.50;100491.03;5064231;28;20044;-79
2020/12/03 02:41:49;;;;;;;21.30;16.20;;;;;;;11.23;66.45;100491.25;5064373;28;20106;-80
2020/12/03 02:44:16;;;;;;;21.17;16.25;;;;;;;11.21;66.30;100488.75;5065510;28;20044;-80
2020/12/03 02:46:41;;;;;;;21.58;16.45;;;;;;;11.12;66.77;100481.81;5064991;28;20035;-79
2020/12/03 02:49:09;;;;;;;19.77;15.02;;;;;;;11.18;66.67;100467.38;5061436;28;20037;-80
2020/12/03 02:51:36;;;;;;;24.73;16.73;;;;;;;11.18;66.68;100463.84;5063758;28;20070;-80
2020/12/03 02:54:01;;;;;;;19.13;15.05;;;;;;;11.21;66.43;100453.34;5065105;28;20480;-79
2020/12/03 02:56:26;;;;;;;15.65;13.00;;;;;;;11.25;66.52;100451.91;5065541;28;20044;-79
2020/12/03 02:58:52;;;;;;;22.55;15.32;;;;;;;11.12;66.89;100446.44;5064300;28;20021;-79
2020/12/03 03:01:17;;;;;;;20.38;15.57;;;;;;;11.11;66.67;100442.06;5065858;28;20136;-80
2020/12/03 03:03:43;;;;;;;18.63;16.60;;;;;;;11.08;66.55;100447.94;5061606;28;20033;-77
2020/12/03 03:06:10;;;;;;;22.40;16.45;;;;;;;11.14;66.71;100446.25;5062109;28;20032;-79
2020/12/03 03:08:36;;;;;;;21.95;17.48;;;;;;;11.12;66.69;100435.56;5063108;28;20763;-79
2020/12/03 03:11:01;;;;;;;20.58;18.35;;;;;;;11.13;66.72;100439.16;5065313;28;20130;-78
2020/12/03 03:13:27;;;;;;;19.92;17.52;;;;;;;11.20;66.84;100445.41;5063700;28;20036;-79
2020/12/03 03:15:52;;;;;;;21.80;16.00;;;;;;;11.19;66.69;100441.03;5064402;28;20850;-79
2020/12/03 03:18:17;;;;;;;25.60;19.65;;;;;;;11.23;66.53;100434.09;5064712;28;20033;-79
2020/12/03 03:20:43;;;;;;;21.05;15.45;;;;;;;11.27;66.49;100428.00;5065354;28;20085;-79
2020/12/03 03:23:08;;;;;;;19.02;15.43;;;;;;;11.26;66.41;100414.63;5063225;28;20054;-79
2020/12/03 03:25:34;;;;;;;19.48;14.13;;;;;;;11.26;66.74;100410.03;5063333;28;20082;-79
2020/12/03 03:27:59;;;;;;;16.60;12.18;;;;;;;11.27;66.52;100413.56;5065478;28;20027;-80
2020/12/03 03:30:25;;;;;;;17.88;14.00;;;;;;;11.29;66.40;100409.59;5069439;28;20064;-79
2020/12/03 03:32:50;;;;;;;16.38;12.27;;;;;;;11.23;66.61;100399.56;5064910;28;20040;-79
2020/12/03 03:35:18;;;;;;;19.58;13.73;;;;;;;11.24;66.44;100392.22;5066828;28;20033;-79
2020/12/03 03:37:44;;;;;;;18.30;14.77;;;;;;;11.19;66.53;100386.59;5068290;28;20135;-78
2020/12/03 03:40:10;;;;;;;18.63;14.10;;;;;;;11.15;66.65;100394.31;5067144;28;20036;-79
2020/12/03 03:42:35;;;;;;;21.88;15.60;;;;;;;11.09;66.85;100390.56;5068633;28;20441;-78
2020/12/03 03:45:02;;;;;;;23.17;16.63;;;;;;;11.03;66.74;100376.97;5068473;28;20553;-78
2020/12/03 03:47:27;;;;;;;21.90;16.73;;;;;;;11.04;66.73;100379.47;5068431;28;20044;-78
2020/12/03 03:49:53;;;;;;;24.35;17.40;;;;;;;11.06;66.84;100376.53;5068163;28;20146;-78
2020/12/03 03:52:18;;;;;;;22.63;18.88;;;;;;;11.08;66.49;100375.28;5085170;28;20032;-78
2020/12/03 03:54:44;;;;;;;20.55;17.67;;;;;;;11.05;66.53;100369.44;5066023;28;20032;-78
2020/12/03 03:57:09;;;;;;;22.92;16.38;;;;;;;11.03;66.82;100368.78;5067594;28;20036;-76
2020/12/03 03:59:35;;;;;;;28.77;20.05;;;;;;;10.95;67.02;100367.13;5066544;28;20028;-77
2020/12/03 04:02:00;;;;;;;22.17;16.08;;;;;;;10.91;67.08;100357.72;5066926;28;20024;-77
2020/12/03 04:04:26;;;;;;;22.45;16.42;;;;;;;10.91;67.06;100357.72;5069728;28;20039;-78
2020/12/03 04:06:51;;;;;;;18.63;14.68;;;;;;;10.99;66.90;100348.53;5068953;28;20048;-78
2020/12/03 04:09:16;;;;;;;21.98;16.30;;;;;;;10.98;66.81;100344.13;5068760;28;20059;-78
2020/12/03 04:11:43;;;;;;;19.65;15.13;;;;;;;10.91;66.96;100344.13;5067745;28;20082;-77
2020/12/03 04:14:09;;;;;;;19.80;15.38;;;;;;;10.90;67.26;100334.28;5068195;28;20460;-77
2020/12/03 04:16:34;;;;;;;22.80;18.15;;;;;;;10.95;67.08;100329.03;5065324;28;20020;-77
2020/12/03 04:19:00;;;;;;;20.48;16.42;;;;;;;10.93;67.20;100317.53;5063644;28;20516;-77
2020/12/03 04:21:25;;;;;;;23.02;16.88;;;;;;;10.95;67.11;100311.88;5066374;28;20028;-77
2020/12/03 04:23:51;;;;;;;32.17;22.42;;;;;;;10.96;66.92;100308.97;5068371;28;20471;-77
2020/12/03 04:26:16;;;;;;;23.45;19.10;;;;;;;10.98;66.80;100312.28;5063712;28;20082;-77
2020/12/03 04:28:42;;;;;;;26.42;20.20;;;;;;;11.00;67.07;100306.63;5066041;28;20036;-76
2020/12/03 04:31:08;;;;;;;25.83;21.17;;;;;;;10.92;67.06;100305.84;5066050;28;20044;-78
2020/12/03 04:33:34;;;;;;;32.30;19.80;;;;;;;10.95;67.05;100301.00;5067823;28;20756;-77
2020/12/03 04:35:59;;;;;;;30.63;24.00;;;;;;;10.98;66.84;100295.97;5065922;28;20036;-77
2020/12/03 04:38:24;;;;;;;26.42;22.55;;;;;;;10.95;66.91;100293.66;5067549;28;20442;-76
2020/12/03 04:40:51;;;;;;;33.22;23.40;;;;;;;10.99;66.78;100297.66;5067936;28;20036;-77
2020/12/03 04:43:26;;;;;;;24.13;20.75;;;;;;;10.97;66.77;100282.56;5067366;28;20514;-77
2020/12/03 04:46:01;;;;;;;26.80;23.98;;;;;;;11.01;66.71;100290.09;5064580;28;20039;-77
2020/12/03 04:48:44;;;;;;;24.00;20.95;;;;;;;10.96;66.83;100289.91;5065700;28;21496;-76
2020/12/03 04:51:52;;;;;;;30.98;19.70;;;;;;;10.97;66.90;100288.00;5061891;28;20645;-76
2020/12/03 04:54:31;;;;;;;29.90;21.75;;;;;;;10.95;66.60;100271.91;5044904;28;20044;-77
2020/12/03 04:57:35;;;;;;;26.10;19.95;;;;;;;10.83;67.10;100265.44;5065933;28;20040;-76
2020/12/03 05:00:18;;;;;;;27.75;24.52;;;;;;;10.69;67.37;100251.88;5066396;28;20028;-76
2020/12/03 05:03:12;;;;;;;26.13;21.20;;;;;;;10.79;67.06;100246.00;5062244;28;20031;-76
2020/12/03 05:05:59;;;;;;;39.30;21.65;;;;;;;10.72;67.16;100251.47;5065238;28;20072;-76
2020/12/03 05:08:31;;;;;;;30.10;21.67;;;;;;;10.75;66.84;100236.59;5061701;28;20040;-76
2020/12/03 05:10:56;;;;;;;26.48;23.55;;;;;;;10.75;66.81;100228.44;5067973;28;20035;-76
2020/12/03 05:13:25;;;;;;;25.88;23.10;;;;;;;10.72;66.80;100221.56;5064998;28;20040;-76
2020/12/03 05:15:57;;;;;;;32.30;24.85;;;;;;;10.60;67.00;100217.81;5064109;28;20025;-75
2020/12/03 05:18:51;;;;;;;36.65;24.75;;;;;;;10.56;67.23;100219.28;5061047;28;20155;-75
2020/12/03 05:21:22;;;;;;;29.52;22.88;;;;;;;10.66;66.79;100213.38;5066856;28;20030;-75
2020/12/03 05:23:48;;;;;;;28.73;22.67;;;;;;;10.57;67.20;100205.47;5064317;28;20147;-75
2020/12/03 05:26:19;;;;;;;31.77;23.42;;;;;;;10.51;67.34;100202.78;5066284;28;20036;-75
2020/12/03 05:28:54;;;;;;;28.42;24.58;;;;;;;10.52;66.89;100199.84;5065069;28;20024;-75
2020/12/03 05:31:31;;;;;;;27.15;22.88;;;;;;;10.51;67.10;100189.19;5065569;28;20028;-76
2020/12/03 05:34:10;;;;;;;32.03;23.85;;;;;;;10.48;67.25;100181.44;5065073;28;20081;-75
2020/12/03 05:36:40;;;;;;;32.47;25.77;;;;;;;10.43;67.30;100173.94;5064867;28;20036;-75
2020/12/03 05:39:13;;;;;;;35.95;27.73;;;;;;;10.41;67.50;100172.44;5066493;28;20445;-75
2020/12/03 05:41:51;;;;;;;35.45;28.33;;;;;;;10.34;67.65;100175.19;5067977;28;20110;-75
2020/12/03 05:44:30;;;;;;;36.70;28.40;;;;;;;10.39;67.44;100157.22;5062591;28;20470;-76
2020/12/03 05:46:56;;;;;;;38.05;25.75;;;;;;;10.39;67.23;100154.50;5065777;28;20028;-75
2020/12/03 05:49:24;;;;;;;37.60;27.75;;;;;;;10.34;67.57;100148.00;5064707;28;20040;-75
2020/12/03 05:52:14;;;;;;;37.15;28.85;;;;;;;10.36;67.26;100138.63;5066513;28;20025;-78
2020/12/03 05:54:40;;;;;;;36.03;27.67;;;;;;;10.08;68.31;100129.84;5063816;28;20037;-78
2020/12/03 05:57:20;;;;;;;37.22;26.77;;;;;;;10.20;67.24;100136.31;5065660;28;20024;-75
2020/12/03 05:59:50;;;;;;;36.42;26.60;;;;;;;10.33;66.99;100127.31;5062978;28;20036;-78
2020/12/03 06:02:26;;;;;;;37.17;27.55;;;;;;;10.21;67.25;100127.13;5063977;28;20135;-75
2020/12/03 06:05:11;;;;;;;30.95;24.50;;;;;;;10.27;67.00;100145.28;5065874;28;20029;-74
2020/12/03 06:07:55;;;;;;;32.95;27.48;;;;;;;10.24;66.82;100137.56;5064842;28;20031;-74
2020/12/03 06:10:31;;;;;;;30.13;25.58;;;;;;;10.19;67.31;100140.06;5067455;28;20036;-74
2020/12/03 06:13:28;;;;;;;34.28;27.30;;;;;;;10.23;67.10;100135.88;5066513;28;20032;-74
2020/12/03 06:16:47;;;;;;;35.17;26.90;;;;;;;10.24;67.08;100134.84;5054463;28;20131;-74
2020/12/03 06:19:24;;;;;;;36.08;27.63;;;;;;;10.27;67.03;100137.13;5004466;28;20035;-74
2020/12/03 06:22:11;;;;;;;34.05;29.65;;;;;;;10.33;66.90;100136.31;5062577;28;20036;-74
2020/12/03 06:25:03;;;;;;;34.63;25.00;;;;;;;10.28;67.11;100132.53;5062186;28;20121;-75
2020/12/03 06:27:53;;;;;;;35.47;25.73;;;;;;;10.35;66.83;100133.38;5062855;28;20063;-74
2020/12/03 06:30:43;;;;;;;36.60;28.33;;;;;;;10.30;66.98;100117.69;5064198;28;20081;-77
2020/12/03 06:33:40;;;;;;;36.65;30.10;;;;;;;10.28;67.22;100113.50;5063941;28;20033;-75
2020/12/03 06:36:18;;;;;;;35.33;28.52;;;;;;;10.24;67.34;100087.78;5064529;28;20115;-75
2020/12/03 06:39:18;;;;;;;37.33;26.38;;;;;;;10.25;67.39;100071.28;5062257;28;20518;-78
2020/12/03 06:41:49;;;;;;;32.20;24.02;;;;;;;10.30;67.20;100074.19;5058310;28;20486;-78
2020/12/03 06:44:22;;;;;;;34.88;24.08;;;;;;;10.30;67.61;100084.22;5062450;28;20390;-74
2020/12/03 06:46:59;;;;;;;35.00;28.48;;;;;;;10.30;67.49;100068.78;5063022;28;20035;-75
2020/12/03 06:49:43;;;;;;;35.13;28.85;;;;;;;10.23;68.07;100064.41;5065298;28;20662;-78
2020/12/03 06:52:30;;;;;;;31.38;24.55;;;;;;;10.24;68.06;100063.34;5063371;28;20028;-78
2020/12/03 06:55:17;;;;;;;33.22;25.35;;;;;;;10.23;68.26;100065.22;5064133;28;20036;-78
2020/12/03 06:58:04;;;;;;;31.52;23.85;;;;;;;10.24;67.82;100066.91;5063938;28;20037;-75
2020/12/03 07:01:20;;;;;;;35.38;27.05;;;;;;;10.15;68.02;100052.72;5062449;28;20753;-74
2020/12/03 07:04:24;;;;;;;24.85;22.08;;;;;;;10.14;68.13;100048.31;5063335;28;20060;-77
2020/12/03 07:07:32;;;;;;;30.58;24.85;;;;;;;10.38;67.80;100046.00;5064194;28;20028;-74
2020/12/03 07:10:22;;;;;;;29.83;23.02;;;;;;;10.42;67.70;100038.22;5063249;28;20075;-75
2020/12/03 07:13:22;;;;;;;26.38;21.35;;;;;;;10.39;67.49;100034.03;5063858;28;20093;-75
2020/12/03 07:16:09;;;;;;;31.48;25.65;;;;;;;10.17;68.43;100037.00;5057450;28;21425;-76
2020/12/03 07:18:47;;;;;;;37.67;26.23;;;;;;;10.11;68.78;100039.75;5065287;28;20033;-76
2020/12/03 07:21:36;;;;;;;37.03;28.23;;;;;;;10.11;68.91;100037.88;5064466;28;20029;-75
2020/12/03 07:24:08;;;;;;;38.65;29.83;;;;;;;10.27;68.17;100035.72;5064093;28;20040;-75
2020/12/03 07:26:56;;;;;;;39.42;31.33;;;;;;;10.21;68.44;100040.16;5063633;28;20028;-75
2020/12/03 07:29:37;;;;;;;38.45;34.30;;;;;;;10.32;68.03;100042.19;5065017;28;20124;-75
2020/12/03 07:32:04;;;;;;;39.75;31.63;;;;;;;10.34;68.09;100034.69;5062069;28;20032;-75
2020/12/03 07:34:41;;;;;;;46.00;32.85;;;;;;;10.38;67.93;100032.41;5064224;28;20044;-74
2020/12/03 07:37:39;;;;;;;44.20;35.80;;;;;;;10.27;68.15;100038.44;5064503;28;20036;-75
2020/12/03 07:40:07;;;;;;;49.75;35.58;;;;;;;10.25;68.32;100035.13;5074563;28;20119;-74
2020/12/03 07:42:32;;;;;;;50.28;35.88;;;;;;;10.35;68.20;100028.22;5061726;28;20533;-74
2020/12/03 07:44:57;;;;;;;52.83;39.88;;;;;;;10.29;68.60;100020.88;5061913;28;20044;-75
2020/12/03 07:47:32;;;;;;;56.85;43.80;;;;;;;10.41;68.28;100015.66;5060218;28;20146;-75
2020/12/03 07:50:06;;;;;;;59.17;40.17;;;;;;;10.51;67.88;100024.16;5064620;28;20060;-74
2020/12/03 07:52:36;;;;;;;55.42;38.35;;;;;;;10.57;67.97;100025.19;5063684;28;20094;-74
2020/12/03 07:55:20;;;;;;;52.30;39.10;;;;;;;10.57;67.95;100027.91;5065995;28;20494;-74
2020/12/03 07:57:52;;;;;;;50.90;36.83;;;;;;;10.65;67.64;100018.66;5067179;28;20036;-74
2020/12/03 08:00:26;;;;;;;56.55;41.53;;;;;;;10.63;67.64;100013.44;5065184;28;20067;-75
2020/12/03 08:02:54;;;;;;;55.17;40.58;;;;;;;10.43;68.37;100005.38;5080015;28;20029;-75
2020/12/03 08:05:39;;;;;;;63.97;43.85;;;;;;;10.35;69.01;100009.19;5063539;28;20037;-76
2020/12/03 08:08:23;;;;;;;66.50;44.40;;;;;;;10.43;68.47;99999.13;5063888;28;20529;-76
2020/12/03 08:10:50;;;;;;;68.95;47.47;;;;;;;10.52;68.19;99995.13;5062339;28;20040;-76
2020/12/03 08:13:40;;;;;;;71.97;46.90;;;;;;;10.41;68.47;99983.03;5062409;28;20025;-77
2020/12/03 08:16:10;;;;;;;70.32;42.90;;;;;;;10.31;68.86;99985.34;5068580;28;20029;-76
2020/12/03 08:18:45;;;;;;;74.95;47.75;;;;;;;10.19;68.90;99985.19;5063800;28;20032;-77
2020/12/03 08:21:14;;;;;;;71.78;45.95;;;;;;;10.43;68.49;99978.22;5068997;28;20043;-76
2020/12/03 08:23:49;;;;;;;67.78;42.70;;;;;;;10.45;68.54;99972.56;5068242;28;20028;-76
2020/12/03 08:26:23;;;;;;;67.78;45.33;;;;;;;10.43;68.69;99963.78;5067606;28;20029;-76
2020/12/03 08:28:50;;;;;;;68.93;51.42;;;;;;;10.26;68.79;99961.53;5076136;28;20032;-78
2020/12/03 08:31:15;;;;;;;63.88;45.60;;;;;;;10.34;69.02;99963.19;5069026;28;20036;-76
2020/12/03 08:33:41;;;;;;;65.28;45.53;;;;;;;10.52;68.20;99954.34;5067538;28;20607;-76
2020/12/03 08:36:07;;;;;;;67.15;46.17;;;;;;;10.35;68.84;99952.13;5069529;28;20033;-77
2020/12/03 08:38:36;;;;;;;57.70;39.80;;;;;;;10.32;68.87;99947.09;5066461;28;20091;-76
2020/12/03 08:41:07;;;;;;;63.22;41.90;;;;;;;10.51;68.35;99952.66;5068758;28;20028;-75
2020/12/03 08:43:39;;;;;;;58.05;40.10;;;;;;;10.46;68.58;99934.28;5068368;28;20185;-76
2020/12/03 08:46:24;;;;;;;55.72;40.55;;;;;;;10.46;68.67;99928.84;5067020;28;20029;-77
2020/12/03 08:48:50;;;;;;;58.47;40.10;;;;;;;10.45;68.89;99929.06;5064537;28;20031;-75
2020/12/03 08:51:17;;;;;;;62.88;45.92;;;;;;;10.45;68.61;99908.13;5068601;28;20119;-77
2020/12/03 08:53:45;;;;;;;54.05;39.90;;;;;;;10.49;68.57;99911.28;5067622;28;20029;-77
2020/12/03 08:56:17;;;;;;;59.50;43.40;;;;;;;10.48;68.62;99904.16;5067728;28;20561;-77
2020/12/03 08:58:50;;;;;;;57.22;41.63;;;;;;;10.34;69.04;99906.13;5077148;28;20443;-75
2020/12/03 09:01:21;;;;;;;67.47;42.83;;;;;;;10.44;68.75;99894.78;5065391;28;20039;-77
2020/12/03 09:03:47;;;;;;;62.35;43.65;;;;;;;10.46;68.82;99909.00;5066227;28;20487;-76
2020/12/03 09:06:13;;;;;;;61.45;40.88;;;;;;;10.46;68.67;99903.56;5065134;28;20059;-75
2020/12/03 09:08:39;;;;;;;58.05;42.03;;;;;;;10.44;68.85;99892.91;5067001;28;20074;-77
2020/12/03 09:11:05;;;;;;;61.67;42.60;;;;;;;10.50;68.75;99885.75;5066996;28;20119;-79
2020/12/03 09:13:30;;;;;;;52.22;36.80;;;;;;;10.47;68.42;99878.03;5064266;28;20526;-76
2020/12/03 09:15:57;;;;;;;54.15;39.05;;;;;;;10.57;68.35;99878.38;5061872;28;20041;-78
2020/12/03 09:18:22;;;;;;;50.22;34.88;;;;;;;10.54;68.40;99879.63;5061030;28;20387;-77
2020/12/03 09:20:48;;;;;;;43.70;30.35;;;;;;;10.47;68.22;99868.00;5063135;28;20033;-76
2020/12/03 09:23:25;;;;;;;43.42;29.88;;;;;;;10.45;68.51;99870.09;5065690;28;20028;-76
2020/12/03 09:25:51;;;;;;;35.45;24.25;;;;;;;10.46;67.79;99865.50;5058179;28;20032;-77
2020/12/03 09:28:18;;;;;;;33.15;23.92;;;;;;;10.47;67.54;99853.56;5064809;28;20123;-75
2020/12/03 09:30:47;;;;;;;35.33;27.52;;;;;;;10.38;67.91;99850.28;5067900;28;20442;-76
2020/12/03 09:33:16;;;;;;;37.03;26.60;;;;;;;10.37;68.21;99854.88;5065189;28;20028;-76
2020/12/03 09:35:43;;;;;;;42.67;28.60;;;;;;;10.28;68.46;99853.44;5068334;28;20036;-78
2020/12/03 09:38:10;;;;;;;38.38;28.35;;;;;;;10.51;67.74;99849.34;5063687;28;20048;-76
2020/12/03 09:40:37;;;;;;;42.35;29.88;;;;;;;10.61;67.50;99844.22;5061711;28;20041;-76
2020/12/03 09:43:03;;;;;;;41.50;29.73;;;;;;;10.19;68.55;99833.88;5062868;28;20028;-76
2020/12/03 09:45:34;;;;;;;38.53;27.60;;;;;;;10.33;68.57;99828.34;5080392;28;20041;-78
2020/12/03 09:48:09;;;;;;;34.55;26.77;;;;;;;10.39;68.18;99819.31;5062961;28;20040;-78
2020/12/03 09:50:35;;;;;;;38.70;24.95;;;;;;;10.45;67.96;99821.16;5064243;28;20087;-76
2020/12/03 09:53:01;;;;;;;32.33;24.20;;;;;;;10.33;68.02;99821.06;5064343;28;20732;-77
2020/12/03 09:55:26;;;;;;;29.70;20.42;;;;;;;10.43;67.85;99811.59;5065741;28;20037;-76
2020/12/03 09:57:54;;;;;;;27.13;18.73;;;;;;;10.53;67.48;99811.91;5064614;28;20043;-76
2020/12/03 10:00:25;;;;;;;26.17;17.50;;;;;;;10.45;67.75;99802.13;5062135;28;20113;-76
2020/12/03 10:02:57;;;;;;;25.60;16.38;;;;;;;10.50;67.46;99799.59;5061886;28;20036;-76
2020/12/03 10:05:38;;;;;;;24.55;17.70;;;;;;;10.55;67.31;99791.59;5067404;28;20044;-77
2020/12/03 10:08:31;;;;;;;24.23;19.65;;;;;;;10.41;67.61;99790.06;5065715;28;20043;-77
2020/12/03 10:11:25;;;;;;;30.38;24.58;;;;;;;10.54;67.49;99784.50;5079088;28;20024;-77
2020/12/03 10:14:18;;;;;;;31.80;22.58;;;;;;;10.46;67.82;99775.81;5066323;28;20033;-76
2020/12/03 10:16:45;;;;;;;41.60;30.50;;;;;;;10.36;68.26;99768.97;5061402;28;20048;-79
2020/12/03 10:19:12;;;;;;;43.90;32.50;;;;;;;10.46;68.01;99762.22;5061788;28;20130;-77
2020/12/03 10:21:55;;;;;;;54.58;37.97;;;;;;;10.36;68.42;99759.97;5060431;28;20037;-77
2020/12/03 10:24:25;;;;;;;60.10;41.47;;;;;;;10.59;67.93;99759.34;5062919;28;20380;-76
2020/12/03 10:27:24;;;;;;;63.97;42.28;;;;;;;10.59;68.07;99751.19;5061996;28;20575;-77
2020/12/03 10:30:00;;;;;;;69.00;44.40;;;;;;;10.56;68.30;99738.88;5064847;28;20079;-75
2020/12/03 10:32:27;;;;;;;74.95;53.08;;;;;;;10.51;68.44;99736.00;5064836;28;20063;-75
2020/12/03 10:34:54;;;;;;;61.95;43.58;;;;;;;10.60;68.25;99728.41;5061179;28;20020;-75
2020/12/03 10:37:47;;;;;;;63.85;41.45;;;;;;;10.64;67.89;99729.59;5063586;28;20049;-75
2020/12/03 10:40:17;;;;;;;70.20;44.58;;;;;;;10.59;68.33;99717.75;5064918;28;20845;-75
2020/12/03 10:43:00;;;;;;;67.38;45.33;;;;;;;10.71;68.00;99713.22;5060871;28;20107;-75
2020/12/03 10:45:31;;;;;;;63.78;42.20;;;;;;;10.73;67.75;99701.06;5062242;28;20437;-77
2020/12/03 10:48:00;;;;;;;62.75;42.55;;;;;;;10.72;67.74;99702.13;5063732;28;20107;-77
2020/12/03 10:51:06;;;;;;;59.25;38.45;;;;;;;10.61;67.89;99691.16;5065176;28;20024;-76
2020/12/03 10:53:32;;;;;;;56.63;41.15;;;;;;;10.43;68.19;99683.84;5039569;28;20096;-77
2020/12/03 10:56:05;;;;;;;60.35;39.28;;;;;;;10.42;68.03;99672.09;5054519;28;20105;-78
2020/12/03 10:59:03;;;;;;;56.78;39.05;;;;;;;10.68;67.72;99681.06;5064480;28;20036;-76
2020/12/03 11:01:31;;;;;;;53.20;35.28;;;;;;;10.51;67.94;99669.94;5060572;28;20117;-75
2020/12/03 11:03:59;;;;;;;51.97;38.30;;;;;;;10.60;67.85;99667.72;5061496;28;20029;-76
2020/12/03 11:06:29;;;;;;;47.78;34.00;;;;;;;10.65;67.66;99655.13;5063042;28;20112;-74
2020/12/03 11:08:59;;;;;;;47.38;33.47;;;;;;;10.63;67.70;99657.25;5066251;28;20475;-80
2020/12/03 11:11:37;;;;;;;50.65;34.38;;;;;;;10.27;68.27;99648.00;5066290;28;20028;-78
2020/12/03 11:14:10;;;;;;;58.42;37.25;;;;;;;10.45;68.06;99649.09;5063522;28;20032;-75
2020/12/03 11:16:38;;;;;;;49.38;35.00;;;;;;;10.55;67.67;99635.78;5061240;28;20668;-76
2020/12/03 11:19:08;;;;;;;50.67;39.17;;;;;;;10.47;68.33;99622.50;5065028;28;20081;-75
2020/12/03 11:21:37;;;;;;;44.03;34.17;;;;;;;10.58;67.76;99621.75;5060019;28;20078;-75
2020/12/03 11:24:27;;;;;;;46.38;31.85;;;;;;;10.65;67.85;99619.78;5064759;28;20029;-75
2020/12/03 11:26:54;;;;;;;44.45;32.10;;;;;;;10.31;68.43;99608.44;5053353;28;20032;-76
2020/12/03 11:29:19;;;;;;;43.65;32.50;;;;;;;10.70;67.74;99609.06;5063243;28;20067;-76
2020/12/03 11:31:45;;;;;;;42.28;32.97;;;;;;;10.62;67.87;99606.66;5058952;28;20591;-77
2020/12/03 11:34:12;;;;;;;44.83;34.53;;;;;;;10.64;67.83;99604.53;5065275;28;20041;-75
2020/12/03 11:36:39;;;;;;;44.25;33.30;;;;;;;10.56;67.96;99604.84;5064825;28;20025;-75